Pagina principale
METAR-TAF:

METAR-TAF

Aeroporti :

Aeroporto di Treviso-Sant'Angelo

Treviso, Italia

latitudine: 45-39N, longitudine: 012-11E, altezza: 18 m

Osservazione

Il bollettino è stato emesso 30 minuti fa, alle 15:50 UTC
Vento 9 kt da sud-est
Temperature 27°C
Umidità 45%
Pressione 1012 hPa
Visibilità 10 km o più
nessuna nube inferiore a 1500 m e nessun cumulonembo

METAR: LIPH 131550Z 14009KT CAVOK 27/14 Q1012

Ora: 18:20 (16:20 UTC)

Previsione

Il bollettino è stato emesso 5 ore e 20 minuti fa, alle 11:00 UTC
Previsione valida dal 13 alle 12 UTC al 14 alle 12 UTC
Vento 10 kt da sud/sud-est
Visibilità 10 km o più
Poco nuvoloso ad un'altezza di 6000 ft
Evoluzione graduale
dal 13 alle 17 UTC al 13 alle 19 UTC
Vento 5 kt da direzioni variabili
Evoluzione graduale
dal 14 alle 08 UTC al 14 alle 10 UTC
Vento 10 kt da sud/sud-ovest

TAF: LIPH 131100Z 1312/1412 16010KT 9999 FEW060 BECMG 1317/1319 VRB05KT BECMG 1408/1410 20010KT

Osservazioni e previsioni meteorologiche di più di 4000 aeroporti (messaggi METAR e TAF).

Le stazioni disponibili sono rappresentate dai dischi gialli e rossi sulla carta.

Puntare il mouse per vedere il nome della stazione.

Clicca sopra per visualizzare le osservazioni e previsioni meteorologiche.

Per cambiare la mappa : fare clic sui pulsanti verdi con una croce nera per ingrandire, il pulsante verde con un trattino per diminuire, o sulla freccia verde per le mappe adiacenti.


METAR-TAF: